createdAt,value
2022-10-17T00:01:47.805Z,12.86
2022-10-17T00:04:15.244Z,12.80
2022-10-17T00:06:42.714Z,12.79
2022-10-17T00:09:10.373Z,12.73
2022-10-17T00:11:38.004Z,12.73
2022-10-17T00:14:05.175Z,12.70
2022-10-17T00:16:37.150Z,12.68
2022-10-17T00:19:06.095Z,12.68
2022-10-17T00:21:34.813Z,12.67
2022-10-17T00:24:02.256Z,12.63
2022-10-17T00:26:30.110Z,12.60
2022-10-17T00:28:57.900Z,12.55
2022-10-17T00:31:25.376Z,12.50
2022-10-17T00:33:52.561Z,12.44
2022-10-17T00:36:22.456Z,12.42
2022-10-17T00:38:52.678Z,12.45
2022-10-17T00:41:21.981Z,12.41
2022-10-17T00:43:53.019Z,12.40
2022-10-17T00:46:20.830Z,12.37
2022-10-17T00:48:50.429Z,12.38
2022-10-17T00:51:21.257Z,12.34
2022-10-17T00:53:49.048Z,12.32
2022-10-17T00:56:16.539Z,12.32
2022-10-17T00:58:43.685Z,12.25
2022-10-17T01:01:10.907Z,12.22
2022-10-17T01:03:38.099Z,12.17
2022-10-17T01:06:05.435Z,12.19
2022-10-17T01:08:32.822Z,12.14
2022-10-17T01:11:02.501Z,12.13
2022-10-17T01:13:48.455Z,12.13
2022-10-17T01:16:37.248Z,12.12
2022-10-17T01:19:10.220Z,12.12
2022-10-17T01:21:48.801Z,12.09
2022-10-17T01:24:28.189Z,12.06
2022-10-17T01:27:21.376Z,12.07
2022-10-17T01:30:03.763Z,12.02
2022-10-17T01:32:50.247Z,11.99
2022-10-17T01:35:27.161Z,12.01
2022-10-17T01:38:29.679Z,12.01
2022-10-17T01:41:16.780Z,12.00
2022-10-17T01:43:54.733Z,11.99
2022-10-17T01:46:43.931Z,12.00
2022-10-17T01:49:11.909Z,11.96
2022-10-17T01:51:47.473Z,11.95
2022-10-17T01:54:17.608Z,11.94
2022-10-17T01:56:46.009Z,11.89
2022-10-17T01:59:24.651Z,11.89
2022-10-17T02:01:53.923Z,11.84
2022-10-17T02:04:21.104Z,11.81
2022-10-17T02:06:48.247Z,11.79
2022-10-17T02:09:21.223Z,11.79
2022-10-17T02:11:55.709Z,11.76
2022-10-17T02:14:25.967Z,11.75
2022-10-17T02:17:24.561Z,11.74
2022-10-17T02:19:54.596Z,11.74
2022-10-17T02:22:41.500Z,11.74
2022-10-17T02:25:34.998Z,11.70
2022-10-17T02:28:30.562Z,11.67
2022-10-17T02:31:11.315Z,11.63
2022-10-17T02:33:51.637Z,11.62
2022-10-17T02:36:25.025Z,11.61
2022-10-17T02:38:52.812Z,11.63
2022-10-17T02:41:20.576Z,11.58
2022-10-17T02:43:48.890Z,11.57
2022-10-17T02:46:21.327Z,11.55
2022-10-17T02:48:51.699Z,11.53
2022-10-17T02:51:40.970Z,11.51
2022-10-17T02:54:21.158Z,11.46
2022-10-17T02:56:55.137Z,11.42
2022-10-17T02:59:23.203Z,11.45
2022-10-17T03:01:51.791Z,11.42
2022-10-17T03:04:19.489Z,11.43
2022-10-17T03:06:47.717Z,11.43
2022-10-17T03:09:15.259Z,11.44
2022-10-17T03:11:42.467Z,11.41
2022-10-17T03:14:09.741Z,11.42
2022-10-17T03:16:36.889Z,11.39
2022-10-17T03:19:04.131Z,11.35
2022-10-17T03:21:31.330Z,11.35
2022-10-17T03:23:58.479Z,11.31
2022-10-17T03:26:25.650Z,11.31
2022-10-17T03:28:54.483Z,11.29
2022-10-17T03:31:22.675Z,11.27
2022-10-17T03:33:49.780Z,11.25
2022-10-17T03:36:18.571Z,11.26
2022-10-17T03:38:47.267Z,11.21
2022-10-17T03:41:14.598Z,11.15
2022-10-17T03:43:41.841Z,11.13
2022-10-17T03:46:09.136Z,11.11
2022-10-17T03:48:36.270Z,11.09
2022-10-17T03:51:05.743Z,11.10
2022-10-17T03:53:33.230Z,11.12
2022-10-17T03:56:17.905Z,11.17
2022-10-17T03:58:45.162Z,11.20
2022-10-17T04:01:13.997Z,11.22
2022-10-17T04:03:41.414Z,11.23
2022-10-17T04:06:13.443Z,11.23
2022-10-17T04:08:42.564Z,11.22
2022-10-17T04:11:11.796Z,11.26
2022-10-17T04:13:39.136Z,11.25
2022-10-17T04:16:09.152Z,11.27
2022-10-17T04:18:36.266Z,11.29
2022-10-17T04:21:05.064Z,11.28
2022-10-17T04:23:32.968Z,11.28
2022-10-17T04:26:01.007Z,11.28
2022-10-17T04:28:28.462Z,11.26
2022-10-17T04:31:00.322Z,11.29
2022-10-17T04:33:27.520Z,11.30
2022-10-17T04:35:58.235Z,11.32
2022-10-17T04:38:28.474Z,11.34
2022-10-17T04:41:03.042Z,11.30
2022-10-17T04:43:31.406Z,11.34
2022-10-17T04:45:59.450Z,11.32
2022-10-17T04:48:26.863Z,11.32
2022-10-17T04:50:58.761Z,11.32
2022-10-17T04:53:27.087Z,11.35
2022-10-17T04:55:54.600Z,11.32
2022-10-17T04:58:22.143Z,11.31
2022-10-17T05:00:49.474Z,11.31
2022-10-17T05:03:17.223Z,11.30
2022-10-17T05:05:44.463Z,11.21
2022-10-17T05:08:12.155Z,11.20
2022-10-17T05:10:40.853Z,11.14
2022-10-17T05:13:08.708Z,11.15
2022-10-17T05:15:36.736Z,11.11
2022-10-17T05:18:05.246Z,11.05
2022-10-17T05:20:32.560Z,11.04
2022-10-17T05:23:00.144Z,11.04
2022-10-17T05:25:27.437Z,11.03
2022-10-17T05:27:54.779Z,10.95
2022-10-17T05:30:22.030Z,10.94
2022-10-17T05:32:52.516Z,10.97
2022-10-17T05:35:19.684Z,10.96
2022-10-17T05:37:47.096Z,10.94
2022-10-17T05:40:14.423Z,10.92
2022-10-17T05:42:46.562Z,10.91
2022-10-17T05:45:14.336Z,10.86
2022-10-17T05:47:41.693Z,10.87
2022-10-17T05:50:09.306Z,10.88
2022-10-17T05:52:36.839Z,10.85
2022-10-17T05:55:05.767Z,10.85
2022-10-17T05:57:32.906Z,10.84
2022-10-17T06:00:01.007Z,10.83
2022-10-17T06:02:28.357Z,10.87
2022-10-17T06:04:55.915Z,10.89
2022-10-17T06:07:23.032Z,10.92
2022-10-17T06:09:50.395Z,10.89
2022-10-17T06:12:20.953Z,10.91
2022-10-17T06:14:48.257Z,10.90
2022-10-17T06:17:18.240Z,10.93
2022-10-17T06:19:45.450Z,10.92
2022-10-17T06:22:12.627Z,10.95
2022-10-17T06:24:39.797Z,10.97
2022-10-17T06:27:10.986Z,10.98
2022-10-17T06:29:39.610Z,11.03
2022-10-17T06:32:09.832Z,11.06
2022-10-17T06:34:40.254Z,11.10
2022-10-17T06:37:07.512Z,11.12
2022-10-17T06:39:35.917Z,11.15
2022-10-17T06:42:04.106Z,11.19
2022-10-17T06:44:31.979Z,11.25
2022-10-17T06:46:59.645Z,11.28
2022-10-17T06:49:27.921Z,11.33
2022-10-17T06:51:55.106Z,11.38
2022-10-17T06:54:22.228Z,11.44
2022-10-17T06:56:49.339Z,11.46
2022-10-17T06:59:16.459Z,11.53
2022-10-17T07:01:46.247Z,11.59
2022-10-17T07:04:14.786Z,11.67
2022-10-17T07:06:41.999Z,11.74
2022-10-17T07:09:09.629Z,11.85
2022-10-17T07:11:37.109Z,11.97
2022-10-17T07:14:04.400Z,12.10
2022-10-17T07:16:31.539Z,12.25
2022-10-17T07:18:58.611Z,12.40
2022-10-17T07:21:25.918Z,12.56
2022-10-17T07:23:53.057Z,12.73
2022-10-17T07:26:20.391Z,12.91
2022-10-17T07:28:52.661Z,13.13
2022-10-17T07:31:20.812Z,13.34
2022-10-17T07:33:48.662Z,13.51
2022-10-17T07:36:16.211Z,13.72
2022-10-17T07:38:43.425Z,13.90
2022-10-17T07:41:13.115Z,14.08
2022-10-17T07:43:42.991Z,14.29
2022-10-17T07:46:11.522Z,14.45
2022-10-17T07:48:39.737Z,14.62
2022-10-17T07:51:09.373Z,14.77
2022-10-17T07:53:41.757Z,14.94
2022-10-17T07:56:11.503Z,15.09
2022-10-17T07:58:38.992Z,15.27
2022-10-17T08:01:10.887Z,15.42
2022-10-17T08:03:42.033Z,15.58
2022-10-17T08:06:09.256Z,15.73
2022-10-17T08:08:36.366Z,15.91
2022-10-17T08:11:08.274Z,16.19
2022-10-17T08:13:36.114Z,16.44
2022-10-17T08:16:07.436Z,16.65
2022-10-17T08:18:35.995Z,17.00
2022-10-17T08:21:06.460Z,17.38
2022-10-17T08:23:33.583Z,17.70
2022-10-17T08:26:01.900Z,17.91
2022-10-17T08:28:29.109Z,18.03
2022-10-17T08:31:04.536Z,18.23
2022-10-17T08:33:33.167Z,18.37
2022-10-17T08:36:01.453Z,18.57
2022-10-17T08:38:33.263Z,18.76
2022-10-17T08:41:05.747Z,19.05
2022-10-17T08:43:42.040Z,19.22
2022-10-17T08:46:09.750Z,19.39
2022-10-17T08:48:44.045Z,19.52
2022-10-17T08:51:23.805Z,19.62
2022-10-17T08:54:14.759Z,19.80
2022-10-17T08:56:49.176Z,19.95
2022-10-17T08:59:30.048Z,20.08
2022-10-17T09:02:12.777Z,20.22
2022-10-17T09:05:15.407Z,20.40
2022-10-17T09:08:19.925Z,20.62
2022-10-17T09:10:47.064Z,20.78
2022-10-17T09:13:48.372Z,20.93
2022-10-17T09:16:30.256Z,21.13
2022-10-17T09:19:10.155Z,21.31
2022-10-17T09:21:47.432Z,21.42
2022-10-17T09:24:48.548Z,21.50
2022-10-17T09:27:31.126Z,21.60
2022-10-17T09:30:17.170Z,21.73
2022-10-17T09:33:00.764Z,21.84
2022-10-17T09:35:28.564Z,21.94
2022-10-17T09:37:55.951Z,22.06
2022-10-17T09:40:33.653Z,22.14
2022-10-17T09:43:03.772Z,22.23
2022-10-17T09:45:37.580Z,22.31
2022-10-17T09:48:11.353Z,22.37
2022-10-17T09:50:38.717Z,22.45
2022-10-17T09:53:20.952Z,22.52
2022-10-17T09:55:51.777Z,22.58
2022-10-17T09:58:20.640Z,22.67
2022-10-17T10:00:49.196Z,22.76
2022-10-17T10:03:22.349Z,22.85
2022-10-17T10:06:14.632Z,22.97
2022-10-17T10:08:51.521Z,23.06
2022-10-17T10:11:24.042Z,23.14
2022-10-17T10:13:51.508Z,23.21
2022-10-17T10:16:42.680Z,23.35
2022-10-17T10:19:28.992Z,23.43
2022-10-17T10:21:58.846Z,23.50
2022-10-17T10:24:30.859Z,23.59
2022-10-17T10:27:03.356Z,23.73
2022-10-17T10:29:31.210Z,23.78
2022-10-17T10:32:42.665Z,23.89
2022-10-17T10:35:22.072Z,24.00
2022-10-17T10:37:55.235Z,24.07
2022-10-17T10:40:43.949Z,24.20
2022-10-17T10:43:29.905Z,24.28
2022-10-17T10:45:57.321Z,24.37
2022-10-17T10:48:27.168Z,24.45
2022-10-17T10:50:57.827Z,24.53
2022-10-17T10:53:55.349Z,24.65
2022-10-17T10:56:38.159Z,24.83
2022-10-17T10:59:08.178Z,24.99
2022-10-17T11:01:54.024Z,25.11
2022-10-17T11:04:58.256Z,25.21
2022-10-17T11:07:33.837Z,25.32
2022-10-17T11:10:19.393Z,25.38
2022-10-17T11:12:52.787Z,25.46
2022-10-17T11:15:39.920Z,25.51
2022-10-17T11:18:10.088Z,25.51
2022-10-17T11:20:59.740Z,25.54
2022-10-17T11:23:41.673Z,25.63
2022-10-17T11:26:12.709Z,25.71
2022-10-17T11:28:39.941Z,25.76
2022-10-17T11:31:12.009Z,25.82
2022-10-17T11:34:01.455Z,25.84
2022-10-17T11:36:35.372Z,25.81
2022-10-17T11:39:08.617Z,25.82
2022-10-17T11:41:41.452Z,25.83
2022-10-17T11:44:41.910Z,25.90
2022-10-17T11:47:30.056Z,25.89
2022-10-17T11:53:00.765Z,25.98
2022-10-17T11:55:29.723Z,25.96
2022-10-17T11:58:01.555Z,25.98
2022-10-17T12:01:06.318Z,26.04
2022-10-17T12:03:48.647Z,26.08
2022-10-17T12:06:31.161Z,26.10
2022-10-17T12:09:01.369Z,26.15
2022-10-17T12:11:50.825Z,26.25
2022-10-17T12:14:39.146Z,26.27
2022-10-17T12:17:22.869Z,26.30
2022-10-17T12:19:50.065Z,26.30
2022-10-17T12:22:22.866Z,26.29
2022-10-17T12:25:17.137Z,26.27
2022-10-17T12:27:46.035Z,26.33
2022-10-17T12:30:13.541Z,26.38
2022-10-17T12:33:06.255Z,26.40
2022-10-17T12:35:36.370Z,26.39
2022-10-17T12:38:18.297Z,26.38
2022-10-17T12:40:49.026Z,26.32
2022-10-17T12:43:16.470Z,26.26
2022-10-17T12:45:53.334Z,26.24
2022-10-17T12:48:40.667Z,26.26
2022-10-17T12:54:12.181Z,26.26
2022-10-17T12:56:42.123Z,26.26
2022-10-17T12:59:24.943Z,26.26
2022-10-17T13:01:56.615Z,26.23
2022-10-17T13:04:24.210Z,26.20
2022-10-17T13:06:54.306Z,26.19
2022-10-17T13:09:31.676Z,26.23
2022-10-17T13:12:01.763Z,26.25
2022-10-17T13:14:29.817Z,26.22
2022-10-17T13:16:57.407Z,26.22
2022-10-17T13:19:29.536Z,26.24
2022-10-17T13:22:05.973Z,26.19
2022-10-17T13:24:36.152Z,26.15
2022-10-17T13:27:04.765Z,26.09
2022-10-17T13:29:33.017Z,26.03
2022-10-17T13:32:04.614Z,25.97
2022-10-17T13:34:33.342Z,25.96
2022-10-17T13:37:02.705Z,25.92
2022-10-17T13:39:54.359Z,25.87
2022-10-17T13:42:27.678Z,25.84
2022-10-17T13:44:56.258Z,25.77
2022-10-17T13:47:25.933Z,25.67
2022-10-17T13:49:55.366Z,25.66
2022-10-17T13:52:25.935Z,25.63
2022-10-17T13:54:53.877Z,25.55
2022-10-17T13:57:28.477Z,25.50
2022-10-17T14:00:01.353Z,25.48
2022-10-17T14:02:33.100Z,25.49
2022-10-17T14:05:17.209Z,25.47
2022-10-17T14:08:15.064Z,25.46
2022-10-17T14:10:44.259Z,25.45
2022-10-17T14:13:25.777Z,25.43
2022-10-17T14:15:54.378Z,25.44
2022-10-17T14:18:25.309Z,25.45
2022-10-17T14:23:42.495Z,25.41
2022-10-17T14:26:16.000Z,25.39
2022-10-17T14:28:45.548Z,25.35
2022-10-17T14:31:25.694Z,25.30
2022-10-17T14:33:54.213Z,25.29
2022-10-17T14:36:31.170Z,25.28
2022-10-17T14:38:58.776Z,25.29
2022-10-17T14:41:44.613Z,25.31
2022-10-17T14:44:32.989Z,25.09
2022-10-17T14:47:18.312Z,24.89
2022-10-17T14:49:51.514Z,24.78
2022-10-17T14:52:21.752Z,24.67
2022-10-17T14:54:50.087Z,24.57
2022-10-17T14:57:19.773Z,24.45
2022-10-17T14:59:55.349Z,24.33
2022-10-17T15:02:28.675Z,24.16
2022-10-17T15:04:56.147Z,23.98
2022-10-17T15:07:23.988Z,23.87
2022-10-17T15:09:52.933Z,23.73
2022-10-17T15:12:25.246Z,23.61
2022-10-17T15:14:53.560Z,23.47
2022-10-17T15:17:26.707Z,23.34
2022-10-17T15:19:53.984Z,23.13
2022-10-17T15:22:21.145Z,23.02
2022-10-17T15:24:48.258Z,22.85
2022-10-17T15:27:21.651Z,22.74
2022-10-17T15:29:49.612Z,22.59
2022-10-17T15:32:16.872Z,22.47
2022-10-17T15:34:44.287Z,22.33
2022-10-17T15:37:22.878Z,22.14
2022-10-17T15:39:54.070Z,22.00
2022-10-17T15:42:23.069Z,21.81
2022-10-17T15:44:50.487Z,21.65
2022-10-17T15:47:25.319Z,21.48
2022-10-17T15:49:53.845Z,21.30
2022-10-17T15:52:21.724Z,21.19
2022-10-17T15:54:49.021Z,21.04
2022-10-17T15:57:25.118Z,20.96
2022-10-17T15:59:53.132Z,20.84
2022-10-17T16:02:22.398Z,20.65
2022-10-17T16:04:50.666Z,20.46
2022-10-17T16:07:18.877Z,20.34
2022-10-17T16:09:46.184Z,20.25
2022-10-17T16:12:17.344Z,20.17
2022-10-17T16:14:44.860Z,20.13
2022-10-17T16:17:15.901Z,20.05
2022-10-17T16:19:43.496Z,19.93
2022-10-17T16:22:36.522Z,19.87
2022-10-17T16:25:19.678Z,19.77
2022-10-17T16:27:48.372Z,19.68
2022-10-17T16:30:16.800Z,19.54
2022-10-17T16:32:44.181Z,19.47
2022-10-17T16:35:37.884Z,19.46
2022-10-17T16:38:06.652Z,19.37
2022-10-17T16:40:34.158Z,19.28
2022-10-17T16:43:01.406Z,19.19
2022-10-17T16:45:28.759Z,19.16
2022-10-17T16:47:55.986Z,19.01
2022-10-17T16:50:24.447Z,18.98
2022-10-17T16:52:51.560Z,18.93
2022-10-17T16:55:19.095Z,18.95
2022-10-17T16:57:48.838Z,18.89
2022-10-17T17:00:17.149Z,18.77
2022-10-17T17:02:44.896Z,18.71
2022-10-17T17:05:14.565Z,18.73
2022-10-17T17:07:42.099Z,18.71
2022-10-17T17:10:09.490Z,18.57
2022-10-17T17:12:36.989Z,18.60
2022-10-17T17:15:04.663Z,18.61
2022-10-17T17:17:48.828Z,18.54
2022-10-17T17:20:18.463Z,18.43
2022-10-17T17:22:45.566Z,18.31
2022-10-17T17:25:12.708Z,18.28
2022-10-17T17:27:39.857Z,18.26
2022-10-17T17:30:07.837Z,18.26
2022-10-17T17:32:34.999Z,18.22
2022-10-17T17:35:02.121Z,18.08
2022-10-17T17:37:29.498Z,18.02
2022-10-17T17:39:56.908Z,18.04
2022-10-17T17:42:24.299Z,17.97
2022-10-17T17:44:52.158Z,17.88
2022-10-17T17:47:20.082Z,17.89
2022-10-17T17:49:47.655Z,17.85
2022-10-17T17:52:14.768Z,17.84
2022-10-17T17:54:41.914Z,17.82
2022-10-17T17:57:09.115Z,17.76
2022-10-17T17:59:37.920Z,17.73
2022-10-17T18:02:06.794Z,17.66
2022-10-17T18:04:34.411Z,17.63
2022-10-17T18:07:01.535Z,17.61
2022-10-17T18:09:28.682Z,17.61
2022-10-17T18:11:55.784Z,17.58
2022-10-17T18:14:23.959Z,17.57
2022-10-17T18:16:51.176Z,17.53
2022-10-17T18:19:18.461Z,17.50
2022-10-17T18:21:45.610Z,17.44
2022-10-17T18:24:12.787Z,17.33
2022-10-17T18:26:39.991Z,17.31
2022-10-17T18:29:07.224Z,17.29
2022-10-17T18:31:36.941Z,17.27
2022-10-17T18:34:05.340Z,17.21
2022-10-17T18:36:33.726Z,17.09
2022-10-17T18:39:01.403Z,17.08
2022-10-17T18:41:28.720Z,17.06
2022-10-17T18:43:56.922Z,17.02
2022-10-17T18:46:36.514Z,16.95
2022-10-17T18:49:03.785Z,16.92
2022-10-17T18:51:31.379Z,16.90
2022-10-17T18:53:58.819Z,16.88
2022-10-17T18:56:26.223Z,16.83
2022-10-17T18:58:53.642Z,16.73
2022-10-17T19:01:23.427Z,16.72
2022-10-17T19:03:52.221Z,16.69
2022-10-17T19:06:21.296Z,16.60
2022-10-17T19:08:48.953Z,16.52
2022-10-17T19:11:26.383Z,16.46
2022-10-17T19:13:54.111Z,16.38
2022-10-17T19:16:33.226Z,16.33
2022-10-17T19:19:06.778Z,16.21
2022-10-17T19:21:34.653Z,16.14
2022-10-17T19:24:05.083Z,16.08
2022-10-17T19:26:33.468Z,16.02
2022-10-17T19:29:00.997Z,15.95
2022-10-17T19:31:29.765Z,15.91
2022-10-17T19:33:57.253Z,15.87
2022-10-17T19:36:30.653Z,15.85
2022-10-17T19:39:22.865Z,15.85
2022-10-17T19:41:50.328Z,15.82
2022-10-17T19:44:18.120Z,15.76
2022-10-17T19:46:46.783Z,15.66
2022-10-17T19:49:14.183Z,15.63
2022-10-17T19:51:41.788Z,15.59
2022-10-17T19:54:09.759Z,15.55
2022-10-17T19:56:38.182Z,15.52
2022-10-17T19:59:06.532Z,15.47
2022-10-17T20:01:38.628Z,15.33
2022-10-17T20:04:06.886Z,15.30
2022-10-17T20:06:34.348Z,15.28
2022-10-17T20:09:01.541Z,15.32
2022-10-17T20:11:28.847Z,15.32
2022-10-17T20:13:56.698Z,15.35
2022-10-17T20:16:26.001Z,15.37
2022-10-17T20:18:54.994Z,15.35
2022-10-17T20:21:27.172Z,15.36
2022-10-17T20:23:54.715Z,15.34
2022-10-17T20:26:36.584Z,15.31
2022-10-17T20:29:11.601Z,15.28
2022-10-17T20:31:40.110Z,15.25
2022-10-17T20:34:07.478Z,15.22
2022-10-17T20:36:37.478Z,15.18
2022-10-17T20:39:06.083Z,15.14
2022-10-17T20:41:33.773Z,15.08
2022-10-17T20:44:00.972Z,15.06
2022-10-17T20:49:17.816Z,14.97
2022-10-17T20:51:45.136Z,14.95
2022-10-17T20:54:12.913Z,14.89
2022-10-17T20:56:40.178Z,14.86
2022-10-17T20:59:11.441Z,14.83
2022-10-17T21:01:38.591Z,14.82
2022-10-17T21:04:33.371Z,14.75
2022-10-17T21:06:53.592Z,14.75
2022-10-17T21:09:21.739Z,14.74
2022-10-17T21:11:51.529Z,14.71
2022-10-17T21:14:19.403Z,14.67
2022-10-17T21:16:47.119Z,14.64
2022-10-17T21:19:15.390Z,14.62
2022-10-17T21:21:45.003Z,14.59
2022-10-17T21:24:17.075Z,14.53
2022-10-17T21:26:45.896Z,14.49
2022-10-17T21:29:14.011Z,14.42
2022-10-17T21:31:43.609Z,14.36
2022-10-17T21:34:17.533Z,14.31
2022-10-17T21:36:45.232Z,14.29
2022-10-17T21:39:13.179Z,14.32
2022-10-17T21:41:40.838Z,14.30
2022-10-17T21:44:15.412Z,14.30
2022-10-17T21:46:43.054Z,14.29
2022-10-17T21:49:15.052Z,14.22
2022-10-17T21:51:43.017Z,14.20
2022-10-17T21:54:10.921Z,14.18
2022-10-17T21:56:38.102Z,14.20
2022-10-17T21:59:05.550Z,14.17
2022-10-17T22:01:37.755Z,14.14
2022-10-17T22:04:07.617Z,14.10
2022-10-17T22:06:40.255Z,14.07
2022-10-17T22:09:22.770Z,14.06
2022-10-17T22:11:53.281Z,14.01
2022-10-17T22:14:21.850Z,13.93
2022-10-17T22:16:49.547Z,13.88
2022-10-17T22:19:19.758Z,13.83
2022-10-17T22:21:47.056Z,13.84
2022-10-17T22:24:16.188Z,13.81
2022-10-17T22:26:44.618Z,13.80
2022-10-17T22:29:12.172Z,13.80
2022-10-17T22:31:39.732Z,13.80
2022-10-17T22:34:07.593Z,13.77
2022-10-17T22:36:35.362Z,13.75
2022-10-17T22:39:03.739Z,13.72
2022-10-17T22:41:31.197Z,13.68
2022-10-17T22:43:58.657Z,13.64
2022-10-17T22:46:26.237Z,13.64
2022-10-17T22:48:53.454Z,13.65
2022-10-17T22:51:20.818Z,13.61
2022-10-17T22:53:48.234Z,13.58
2022-10-17T22:56:17.932Z,13.56
2022-10-17T22:58:45.982Z,13.56
2022-10-17T23:01:16.284Z,13.52
2022-10-17T23:03:43.913Z,13.50
2022-10-17T23:06:11.660Z,13.49
2022-10-17T23:08:39.542Z,13.46
2022-10-17T23:11:07.417Z,13.43
2022-10-17T23:13:35.631Z,13.40
2022-10-17T23:16:03.797Z,13.36
2022-10-17T23:21:03.800Z,13.30
2022-10-17T23:23:31.154Z,13.29
2022-10-17T23:26:09.477Z,13.27
2022-10-17T23:28:36.947Z,13.23
2022-10-17T23:31:19.635Z,13.24
2022-10-17T23:33:48.405Z,13.23
2022-10-17T23:36:18.024Z,13.19
2022-10-17T23:38:46.766Z,13.15
2022-10-17T23:41:14.488Z,13.14
2022-10-17T23:43:42.050Z,13.10
2022-10-17T23:46:09.674Z,13.08
2022-10-17T23:48:38.517Z,13.07
2022-10-17T23:51:07.556Z,13.09
2022-10-17T23:53:35.552Z,13.10
2022-10-17T23:56:02.845Z,13.07
2022-10-17T23:58:30.161Z,13.02
